sensor_id;sensor_type;location;lat;lon;timestamp;P1;durP1;ratioP1;P2;durP2;ratioP2
22107;SDS011;11220;48.812;9.128;2022-12-20T00:01:17;1.38;;;1.23;;
22107;SDS011;11220;48.812;9.128;2022-12-20T00:03:45;1.73;;;1.30;;
22107;SDS011;11220;48.812;9.128;2022-12-20T00:06:12;1.90;;;1.23;;
22107;SDS011;11220;48.812;9.128;2022-12-20T00:08:38;1.45;;;1.13;;
22107;SDS011;11220;48.812;9.128;2022-12-20T00:11:05;1.73;;;1.30;;
22107;SDS011;11220;48.812;9.128;2022-12-20T00:13:31;1.70;;;1.35;;
22107;SDS011;11220;48.812;9.128;2022-12-20T00:16:10;1.42;;;1.30;;
22107;SDS011;11220;48.812;9.128;2022-12-20T00:18:41;1.20;;;1.05;;
22107;SDS011;11220;48.812;9.128;2022-12-20T00:21:08;1.50;;;1.10;;
22107;SDS011;11220;48.812;9.128;2022-12-20T00:23:36;2.10;;;1.23;;
22107;SDS011;11220;48.812;9.128;2022-12-20T00:26:06;1.27;;;1.17;;
22107;SDS011;11220;48.812;9.128;2022-12-20T00:28:33;1.45;;;0.95;;
22107;SDS011;11220;48.812;9.128;2022-12-20T00:31:00;1.75;;;1.50;;
22107;SDS011;11220;48.812;9.128;2022-12-20T00:33:26;1.92;;;1.30;;
22107;SDS011;11220;48.812;9.128;2022-12-20T00:35:53;1.48;;;1.13;;
22107;SDS011;11220;48.812;9.128;2022-12-20T00:38:20;1.63;;;1.20;;
22107;SDS011;11220;48.812;9.128;2022-12-20T00:40:46;1.45;;;1.15;;
22107;SDS011;11220;48.812;9.128;2022-12-20T00:43:12;1.20;;;1.10;;
22107;SDS011;11220;48.812;9.128;2022-12-20T00:45:37;1.55;;;1.30;;
22107;SDS011;11220;48.812;9.128;2022-12-20T00:48:03;1.52;;;1.13;;
22107;SDS011;11220;48.812;9.128;2022-12-20T00:50:29;1.60;;;1.23;;
22107;SDS011;11220;48.812;9.128;2022-12-20T00:52:55;1.38;;;1.27;;
22107;SDS011;11220;48.812;9.128;2022-12-20T00:55:20;1.60;;;1.27;;
22107;SDS011;11220;48.812;9.128;2022-12-20T00:57:46;1.58;;;1.33;;
22107;SDS011;11220;48.812;9.128;2022-12-20T01:00:12;1.63;;;1.38;;
22107;SDS011;11220;48.812;9.128;2022-12-20T01:02:37;1.55;;;1.23;;
22107;SDS011;11220;48.812;9.128;2022-12-20T01:05:03;1.50;;;1.10;;
22107;SDS011;11220;48.812;9.128;2022-12-20T01:07:30;1.65;;;1.38;;
22107;SDS011;11220;48.812;9.128;2022-12-20T01:09:56;2.03;;;1.42;;
22107;SDS011;11220;48.812;9.128;2022-12-20T01:12:22;1.83;;;1.30;;
22107;SDS011;11220;48.812;9.128;2022-12-20T01:14:48;2.08;;;1.25;;
22107;SDS011;11220;48.812;9.128;2022-12-20T01:17:13;1.65;;;1.30;;
22107;SDS011;11220;48.812;9.128;2022-12-20T01:19:39;1.58;;;1.33;;
22107;SDS011;11220;48.812;9.128;2022-12-20T01:22:04;1.25;;;1.15;;
22107;SDS011;11220;48.812;9.128;2022-12-20T01:24:30;1.30;;;1.13;;
22107;SDS011;11220;48.812;9.128;2022-12-20T01:26:55;1.67;;;1.33;;
22107;SDS011;11220;48.812;9.128;2022-12-20T01:29:21;1.90;;;1.13;;
22107;SDS011;11220;48.812;9.128;2022-12-20T01:31:46;1.05;;;1.00;;
22107;SDS011;11220;48.812;9.128;2022-12-20T01:34:12;1.52;;;1.20;;
22107;SDS011;11220;48.812;9.128;2022-12-20T01:36:38;1.65;;;1.20;;
22107;SDS011;11220;48.812;9.128;2022-12-20T01:39:10;2.50;;;1.45;;
22107;SDS011;11220;48.812;9.128;2022-12-20T01:41:38;1.85;;;1.02;;
22107;SDS011;11220;48.812;9.128;2022-12-20T01:46:49;2.38;;;1.58;;
22107;SDS011;11220;48.812;9.128;2022-12-20T01:49:17;1.75;;;1.33;;
22107;SDS011;11220;48.812;9.128;2022-12-20T01:52:31;2.05;;;1.33;;
22107;SDS011;11220;48.812;9.128;2022-12-20T01:54:44;1.52;;;1.17;;
22107;SDS011;11220;48.812;9.128;2022-12-20T01:57:15;1.75;;;1.30;;
22107;SDS011;11220;48.812;9.128;2022-12-20T01:59:46;1.45;;;1.10;;
22107;SDS011;11220;48.812;9.128;2022-12-20T02:02:14;1.98;;;1.27;;
22107;SDS011;11220;48.812;9.128;2022-12-20T02:04:40;1.38;;;1.27;;
22107;SDS011;11220;48.812;9.128;2022-12-20T02:07:06;1.70;;;1.42;;
22107;SDS011;11220;48.812;9.128;2022-12-20T02:09:34;1.70;;;1.20;;
22107;SDS011;11220;48.812;9.128;2022-12-20T02:12:07;1.88;;;1.30;;
22107;SDS011;11220;48.812;9.128;2022-12-20T02:17:29;1.92;;;1.40;;
22107;SDS011;11220;48.812;9.128;2022-12-20T02:25:56;2.28;;;1.20;;
22107;SDS011;11220;48.812;9.128;2022-12-20T02:28:37;1.42;;;1.20;;
22107;SDS011;11220;48.812;9.128;2022-12-20T02:31:25;1.30;;;1.20;;
22107;SDS011;11220;48.812;9.128;2022-12-20T02:33:54;1.80;;;1.17;;
22107;SDS011;11220;48.812;9.128;2022-12-20T02:36:22;1.60;;;1.25;;
22107;SDS011;11220;48.812;9.128;2022-12-20T02:38:49;1.27;;;1.00;;
22107;SDS011;11220;48.812;9.128;2022-12-20T02:41:18;2.15;;;1.60;;
22107;SDS011;11220;48.812;9.128;2022-12-20T02:43:44;1.10;;;1.00;;
22107;SDS011;11220;48.812;9.128;2022-12-20T02:46:35;1.55;;;1.38;;
22107;SDS011;11220;48.812;9.128;2022-12-20T02:49:03;1.85;;;1.13;;
22107;SDS011;11220;48.812;9.128;2022-12-20T02:51:37;1.90;;;1.10;;
22107;SDS011;11220;48.812;9.128;2022-12-20T02:54:05;2.03;;;1.10;;
22107;SDS011;11220;48.812;9.128;2022-12-20T02:56:34;1.92;;;1.50;;
22107;SDS011;11220;48.812;9.128;2022-12-20T02:59:09;1.10;;;0.98;;
22107;SDS011;11220;48.812;9.128;2022-12-20T03:01:39;2.10;;;1.17;;
22107;SDS011;11220;48.812;9.128;2022-12-20T03:04:10;2.25;;;1.40;;
22107;SDS011;11220;48.812;9.128;2022-12-20T03:06:38;1.75;;;1.20;;
22107;SDS011;11220;48.812;9.128;2022-12-20T03:09:04;1.10;;;1.00;;
22107;SDS011;11220;48.812;9.128;2022-12-20T03:11:29;1.23;;;1.05;;
22107;SDS011;11220;48.812;9.128;2022-12-20T03:13:55;1.00;;;0.90;;
22107;SDS011;11220;48.812;9.128;2022-12-20T03:16:21;1.85;;;1.30;;
22107;SDS011;11220;48.812;9.128;2022-12-20T03:18:46;1.33;;;1.23;;
22107;SDS011;11220;48.812;9.128;2022-12-20T03:21:12;1.65;;;1.35;;
22107;SDS011;11220;48.812;9.128;2022-12-20T03:23:38;1.50;;;1.17;;
22107;SDS011;11220;48.812;9.128;2022-12-20T03:26:03;1.80;;;1.05;;
22107;SDS011;11220;48.812;9.128;2022-12-20T03:28:29;1.38;;;1.10;;
22107;SDS011;11220;48.812;9.128;2022-12-20T03:30:54;1.58;;;1.20;;
22107;SDS011;11220;48.812;9.128;2022-12-20T03:33:20;1.33;;;1.00;;
22107;SDS011;11220;48.812;9.128;2022-12-20T03:35:46;1.90;;;1.00;;
22107;SDS011;11220;48.812;9.128;2022-12-20T03:38:12;2.08;;;1.30;;
22107;SDS011;11220;48.812;9.128;2022-12-20T03:40:37;0.98;;;0.98;;
22107;SDS011;11220;48.812;9.128;2022-12-20T03:43:03;1.10;;;1.00;;
22107;SDS011;11220;48.812;9.128;2022-12-20T03:45:28;1.25;;;1.00;;
22107;SDS011;11220;48.812;9.128;2022-12-20T03:47:54;1.52;;;1.10;;
22107;SDS011;11220;48.812;9.128;2022-12-20T03:50:20;1.30;;;1.10;;
22107;SDS011;11220;48.812;9.128;2022-12-20T03:52:45;1.23;;;0.90;;
22107;SDS011;11220;48.812;9.128;2022-12-20T03:55:11;1.00;;;0.90;;
22107;SDS011;11220;48.812;9.128;2022-12-20T03:57:37;1.48;;;1.13;;
22107;SDS011;11220;48.812;9.128;2022-12-20T04:00:03;1.65;;;1.00;;
22107;SDS011;11220;48.812;9.128;2022-12-20T04:02:29;0.82;;;0.80;;
22107;SDS011;11220;48.812;9.128;2022-12-20T04:04:54;1.27;;;1.00;;
22107;SDS011;11220;48.812;9.128;2022-12-20T04:07:20;1.40;;;1.30;;
22107;SDS011;11220;48.812;9.128;2022-12-20T04:09:45;1.30;;;0.93;;
22107;SDS011;11220;48.812;9.128;2022-12-20T04:12:11;1.20;;;1.05;;
22107;SDS011;11220;48.812;9.128;2022-12-20T04:14:36;1.20;;;1.10;;
22107;SDS011;11220;48.812;9.128;2022-12-20T04:17:02;0.90;;;0.90;;
22107;SDS011;11220;48.812;9.128;2022-12-20T04:19:28;1.85;;;0.93;;
22107;SDS011;11220;48.812;9.128;2022-12-20T04:21:53;2.08;;;1.02;;
22107;SDS011;11220;48.812;9.128;2022-12-20T04:24:20;0.90;;;0.90;;
22107;SDS011;11220;48.812;9.128;2022-12-20T04:26:45;1.00;;;0.88;;
22107;SDS011;11220;48.812;9.128;2022-12-20T04:29:11;1.00;;;1.00;;
22107;SDS011;11220;48.812;9.128;2022-12-20T04:31:37;1.20;;;1.10;;
22107;SDS011;11220;48.812;9.128;2022-12-20T04:34:02;1.02;;;0.90;;
22107;SDS011;11220;48.812;9.128;2022-12-20T04:36:28;1.38;;;1.05;;
22107;SDS011;11220;48.812;9.128;2022-12-20T04:38:53;1.13;;;0.82;;
22107;SDS011;11220;48.812;9.128;2022-12-20T04:41:19;1.08;;;0.93;;
22107;SDS011;11220;48.812;9.128;2022-12-20T04:43:48;1.33;;;1.10;;
22107;SDS011;11220;48.812;9.128;2022-12-20T04:46:15;1.10;;;1.00;;
22107;SDS011;11220;48.812;9.128;2022-12-20T04:48:40;1.30;;;1.00;;
22107;SDS011;11220;48.812;9.128;2022-12-20T04:51:06;1.52;;;1.02;;
22107;SDS011;11220;48.812;9.128;2022-12-20T04:53:31;1.40;;;0.98;;
22107;SDS011;11220;48.812;9.128;2022-12-20T04:56:13;1.15;;;1.00;;
22107;SDS011;11220;48.812;9.128;2022-12-20T04:58:40;1.00;;;0.90;;
22107;SDS011;11220;48.812;9.128;2022-12-20T05:01:05;1.67;;;1.17;;
22107;SDS011;11220;48.812;9.128;2022-12-20T05:03:31;1.27;;;0.98;;
22107;SDS011;11220;48.812;9.128;2022-12-20T05:05:57;1.05;;;0.90;;
22107;SDS011;11220;48.812;9.128;2022-12-20T05:08:22;0.85;;;0.80;;
22107;SDS011;11220;48.812;9.128;2022-12-20T05:10:48;1.23;;;0.90;;
22107;SDS011;11220;48.812;9.128;2022-12-20T05:13:14;0.75;;;0.75;;
22107;SDS011;11220;48.812;9.128;2022-12-20T05:15:40;1.17;;;0.88;;
22107;SDS011;11220;48.812;9.128;2022-12-20T05:18:06;1.02;;;0.77;;
22107;SDS011;11220;48.812;9.128;2022-12-20T05:20:32;1.17;;;1.00;;
22107;SDS011;11220;48.812;9.128;2022-12-20T05:22:57;1.08;;;0.90;;
22107;SDS011;11220;48.812;9.128;2022-12-20T05:25:41;0.88;;;0.80;;
22107;SDS011;11220;48.812;9.128;2022-12-20T05:28:27;1.10;;;0.93;;
22107;SDS011;11220;48.812;9.128;2022-12-20T05:30:54;1.42;;;0.88;;
22107;SDS011;11220;48.812;9.128;2022-12-20T05:33:19;1.25;;;0.88;;
22107;SDS011;11220;48.812;9.128;2022-12-20T05:35:45;1.00;;;0.70;;
22107;SDS011;11220;48.812;9.128;2022-12-20T05:38:10;1.02;;;0.93;;
22107;SDS011;11220;48.812;9.128;2022-12-20T05:40:36;1.13;;;1.02;;
22107;SDS011;11220;48.812;9.128;2022-12-20T05:43:03;0.93;;;0.80;;
22107;SDS011;11220;48.812;9.128;2022-12-20T05:45:30;1.10;;;0.73;;
22107;SDS011;11220;48.812;9.128;2022-12-20T05:47:55;0.80;;;0.77;;
22107;SDS011;11220;48.812;9.128;2022-12-20T05:50:21;1.48;;;0.82;;
22107;SDS011;11220;48.812;9.128;2022-12-20T05:52:47;1.17;;;0.90;;
22107;SDS011;11220;48.812;9.128;2022-12-20T05:55:12;1.27;;;0.88;;
22107;SDS011;11220;48.812;9.128;2022-12-20T05:57:38;0.60;;;0.60;;
22107;SDS011;11220;48.812;9.128;2022-12-20T06:00:04;1.17;;;1.08;;
22107;SDS011;11220;48.812;9.128;2022-12-20T06:02:30;0.90;;;0.80;;
22107;SDS011;11220;48.812;9.128;2022-12-20T06:04:56;1.33;;;0.80;;
22107;SDS011;11220;48.812;9.128;2022-12-20T06:07:23;0.82;;;0.80;;
22107;SDS011;11220;48.812;9.128;2022-12-20T06:09:48;0.80;;;0.80;;
22107;SDS011;11220;48.812;9.128;2022-12-20T06:12:14;1.23;;;0.98;;
22107;SDS011;11220;48.812;9.128;2022-12-20T06:14:39;1.17;;;0.77;;
22107;SDS011;11220;48.812;9.128;2022-12-20T06:17:05;1.10;;;0.80;;
22107;SDS011;11220;48.812;9.128;2022-12-20T06:19:31;0.85;;;0.68;;
22107;SDS011;11220;48.812;9.128;2022-12-20T06:21:56;0.70;;;0.60;;
22107;SDS011;11220;48.812;9.128;2022-12-20T06:24:22;2.28;;;0.90;;
22107;SDS011;11220;48.812;9.128;2022-12-20T06:26:51;0.75;;;0.75;;
22107;SDS011;11220;48.812;9.128;2022-12-20T06:29:17;0.82;;;0.82;;
22107;SDS011;11220;48.812;9.128;2022-12-20T06:31:44;0.95;;;0.80;;
22107;SDS011;11220;48.812;9.128;2022-12-20T06:34:10;1.08;;;0.80;;
22107;SDS011;11220;48.812;9.128;2022-12-20T06:36:36;1.00;;;0.80;;
22107;SDS011;11220;48.812;9.128;2022-12-20T06:39:02;0.90;;;0.70;;
22107;SDS011;11220;48.812;9.128;2022-12-20T06:41:27;0.70;;;0.70;;
22107;SDS011;11220;48.812;9.128;2022-12-20T06:43:53;0.80;;;0.70;;
22107;SDS011;11220;48.812;9.128;2022-12-20T06:46:18;0.80;;;0.80;;
22107;SDS011;11220;48.812;9.128;2022-12-20T06:48:44;0.50;;;0.50;;
22107;SDS011;11220;48.812;9.128;2022-12-20T06:51:10;0.77;;;0.70;;
22107;SDS011;11220;48.812;9.128;2022-12-20T06:53:35;0.80;;;0.77;;
22107;SDS011;11220;48.812;9.128;2022-12-20T06:56:01;0.77;;;0.70;;
22107;SDS011;11220;48.812;9.128;2022-12-20T06:58:26;0.70;;;0.70;;
22107;SDS011;11220;48.812;9.128;2022-12-20T07:00:53;0.85;;;0.60;;
22107;SDS011;11220;48.812;9.128;2022-12-20T07:03:18;1.10;;;0.80;;
22107;SDS011;11220;48.812;9.128;2022-12-20T07:05:44;0.90;;;0.73;;
22107;SDS011;11220;48.812;9.128;2022-12-20T07:08:14;0.75;;;0.60;;
22107;SDS011;11220;48.812;9.128;2022-12-20T07:10:40;1.02;;;0.80;;
22107;SDS011;11220;48.812;9.128;2022-12-20T07:13:05;0.68;;;0.60;;
22107;SDS011;11220;48.812;9.128;2022-12-20T07:15:31;0.50;;;0.50;;
22107;SDS011;11220;48.812;9.128;2022-12-20T07:17:56;0.98;;;0.70;;
22107;SDS011;11220;48.812;9.128;2022-12-20T07:20:22;0.68;;;0.63;;
22107;SDS011;11220;48.812;9.128;2022-12-20T07:22:47;0.50;;;0.50;;
22107;SDS011;11220;48.812;9.128;2022-12-20T07:25:13;0.90;;;0.60;;
22107;SDS011;11220;48.812;9.128;2022-12-20T07:27:39;0.70;;;0.70;;
22107;SDS011;11220;48.812;9.128;2022-12-20T07:30:04;1.02;;;0.82;;
22107;SDS011;11220;48.812;9.128;2022-12-20T07:32:30;1.10;;;0.70;;
22107;SDS011;11220;48.812;9.128;2022-12-20T07:34:56;0.65;;;0.60;;
22107;SDS011;11220;48.812;9.128;2022-12-20T07:37:22;0.70;;;0.70;;
22107;SDS011;11220;48.812;9.128;2022-12-20T07:39:47;0.60;;;0.60;;
22107;SDS011;11220;48.812;9.128;2022-12-20T07:42:13;0.75;;;0.50;;
22107;SDS011;11220;48.812;9.128;2022-12-20T07:44:38;1.27;;;0.70;;
22107;SDS011;11220;48.812;9.128;2022-12-20T07:47:04;0.60;;;0.60;;
22107;SDS011;11220;48.812;9.128;2022-12-20T07:49:29;0.70;;;0.50;;
22107;SDS011;11220;48.812;9.128;2022-12-20T07:51:56;0.60;;;0.60;;
22107;SDS011;11220;48.812;9.128;2022-12-20T07:54:25;0.70;;;0.70;;
22107;SDS011;11220;48.812;9.128;2022-12-20T07:57:00;0.80;;;0.70;;
22107;SDS011;11220;48.812;9.128;2022-12-20T07:59:37;0.60;;;0.60;;
22107;SDS011;11220;48.812;9.128;2022-12-20T08:02:06;0.80;;;0.80;;
22107;SDS011;11220;48.812;9.128;2022-12-20T08:04:36;1.00;;;0.60;;
22107;SDS011;11220;48.812;9.128;2022-12-20T08:07:02;1.00;;;0.73;;
22107;SDS011;11220;48.812;9.128;2022-12-20T08:09:28;0.80;;;0.80;;
22107;SDS011;11220;48.812;9.128;2022-12-20T08:11:59;0.77;;;0.70;;
22107;SDS011;11220;48.812;9.128;2022-12-20T08:14:24;1.02;;;0.73;;
22107;SDS011;11220;48.812;9.128;2022-12-20T08:16:50;1.33;;;0.80;;
22107;SDS011;11220;48.812;9.128;2022-12-20T08:19:16;0.98;;;0.90;;
22107;SDS011;11220;48.812;9.128;2022-12-20T08:21:42;1.08;;;0.80;;
22107;SDS011;11220;48.812;9.128;2022-12-20T08:24:07;0.70;;;0.70;;
22107;SDS011;11220;48.812;9.128;2022-12-20T08:26:39;0.57;;;0.55;;
22107;SDS011;11220;48.812;9.128;2022-12-20T08:29:05;0.75;;;0.60;;
22107;SDS011;11220;48.812;9.128;2022-12-20T08:31:32;0.65;;;0.50;;
22107;SDS011;11220;48.812;9.128;2022-12-20T08:34:01;1.38;;;0.68;;
22107;SDS011;11220;48.812;9.128;2022-12-20T08:36:26;0.80;;;0.60;;
22107;SDS011;11220;48.812;9.128;2022-12-20T08:38:52;0.85;;;0.70;;
22107;SDS011;11220;48.812;9.128;2022-12-20T08:41:17;0.90;;;0.70;;
22107;SDS011;11220;48.812;9.128;2022-12-20T08:43:43;0.70;;;0.70;;
22107;SDS011;11220;48.812;9.128;2022-12-20T08:46:09;0.80;;;0.70;;
22107;SDS011;11220;48.812;9.128;2022-12-20T08:48:36;0.68;;;0.65;;
22107;SDS011;11220;48.812;9.128;2022-12-20T08:51:03;0.70;;;0.70;;
22107;SDS011;11220;48.812;9.128;2022-12-20T08:53:30;0.60;;;0.60;;
22107;SDS011;11220;48.812;9.128;2022-12-20T08:56:04;0.70;;;0.65;;
22107;SDS011;11220;48.812;9.128;2022-12-20T08:58:32;0.77;;;0.70;;
22107;SDS011;11220;48.812;9.128;2022-12-20T09:00:58;1.10;;;0.90;;
22107;SDS011;11220;48.812;9.128;2022-12-20T09:03:25;0.70;;;0.70;;
22107;SDS011;11220;48.812;9.128;2022-12-20T09:05:51;0.75;;;0.60;;
22107;SDS011;11220;48.812;9.128;2022-12-20T09:08:16;0.93;;;0.80;;
22107;SDS011;11220;48.812;9.128;2022-12-20T09:10:42;0.85;;;0.65;;
22107;SDS011;11220;48.812;9.128;2022-12-20T09:13:08;1.05;;;0.82;;
22107;SDS011;11220;48.812;9.128;2022-12-20T09:15:34;0.98;;;0.80;;
22107;SDS011;11220;48.812;9.128;2022-12-20T09:18:00;1.17;;;0.70;;
22107;SDS011;11220;48.812;9.128;2022-12-20T09:20:27;1.38;;;0.80;;
22107;SDS011;11220;48.812;9.128;2022-12-20T09:22:53;0.65;;;0.65;;
22107;SDS011;11220;48.812;9.128;2022-12-20T09:25:18;1.55;;;0.82;;
22107;SDS011;11220;48.812;9.128;2022-12-20T09:27:44;0.70;;;0.70;;
22107;SDS011;11220;48.812;9.128;2022-12-20T09:30:10;1.20;;;0.90;;
22107;SDS011;11220;48.812;9.128;2022-12-20T09:32:35;1.35;;;0.90;;
22107;SDS011;11220;48.812;9.128;2022-12-20T09:35:01;1.63;;;0.90;;
22107;SDS011;11220;48.812;9.128;2022-12-20T09:37:31;1.13;;;0.90;;
22107;SDS011;11220;48.812;9.128;2022-12-20T09:39:56;1.15;;;0.80;;
22107;SDS011;11220;48.812;9.128;2022-12-20T09:42:23;1.30;;;0.90;;
22107;SDS011;11220;48.812;9.128;2022-12-20T09:44:51;1.35;;;0.70;;
22107;SDS011;11220;48.812;9.128;2022-12-20T09:47:21;0.80;;;0.70;;
22107;SDS011;11220;48.812;9.128;2022-12-20T09:49:49;1.38;;;1.05;;
22107;SDS011;11220;48.812;9.128;2022-12-20T09:55:20;0.93;;;0.55;;
22107;SDS011;11220;48.812;9.128;2022-12-20T10:00:27;1.02;;;0.88;;
22107;SDS011;11220;48.812;9.128;2022-12-20T10:02:54;1.17;;;0.80;;
22107;SDS011;11220;48.812;9.128;2022-12-20T10:05:32;1.23;;;0.80;;
22107;SDS011;11220;48.812;9.128;2022-12-20T10:10:45;0.73;;;0.73;;
22107;SDS011;11220;48.812;9.128;2022-12-20T10:18:46;1.13;;;0.70;;
22107;SDS011;11220;48.812;9.128;2022-12-20T10:21:43;0.70;;;0.70;;
22107;SDS011;11220;48.812;9.128;2022-12-20T10:24:18;0.80;;;0.80;;
22107;SDS011;11220;48.812;9.128;2022-12-20T10:26:45;1.20;;;0.90;;
22107;SDS011;11220;48.812;9.128;2022-12-20T10:29:14;1.13;;;0.80;;
22107;SDS011;11220;48.812;9.128;2022-12-20T10:31:40;0.75;;;0.60;;
22107;SDS011;11220;48.812;9.128;2022-12-20T10:34:06;1.13;;;0.80;;
22107;SDS011;11220;48.812;9.128;2022-12-20T10:36:33;1.13;;;0.80;;
22107;SDS011;11220;48.812;9.128;2022-12-20T10:39:01;0.80;;;0.70;;
22107;SDS011;11220;48.812;9.128;2022-12-20T10:41:30;0.80;;;0.70;;
22107;SDS011;11220;48.812;9.128;2022-12-20T10:44:00;1.15;;;0.80;;
22107;SDS011;11220;48.812;9.128;2022-12-20T10:46:39;0.65;;;0.60;;
22107;SDS011;11220;48.812;9.128;2022-12-20T10:52:00;0.77;;;0.70;;
22107;SDS011;11220;48.812;9.128;2022-12-20T10:57:18;0.73;;;0.70;;
22107;SDS011;11220;48.812;9.128;2022-12-20T10:59:56;0.77;;;0.60;;
22107;SDS011;11220;48.812;9.128;2022-12-20T11:02:34;0.60;;;0.60;;
22107;SDS011;11220;48.812;9.128;2022-12-20T11:07:56;0.90;;;0.70;;
22107;SDS011;11220;48.812;9.128;2022-12-20T11:10:24;0.88;;;0.80;;
22107;SDS011;11220;48.812;9.128;2022-12-20T11:15:23;0.93;;;0.63;;
22107;SDS011;11220;48.812;9.128;2022-12-20T11:17:52;0.57;;;0.57;;
22107;SDS011;11220;48.812;9.128;2022-12-20T11:37:03;0.80;;;0.60;;
22107;SDS011;11220;48.812;9.128;2022-12-20T11:53:19;0.80;;;0.63;;
22107;SDS011;11220;48.812;9.128;2022-12-20T11:56:01;0.77;;;0.57;;
22107;SDS011;11220;48.812;9.128;2022-12-20T11:58:40;1.15;;;0.70;;
22107;SDS011;11220;48.812;9.128;2022-12-20T12:01:16;1.27;;;0.70;;
22107;SDS011;11220;48.812;9.128;2022-12-20T12:06:34;0.80;;;0.70;;
22107;SDS011;11220;48.812;9.128;2022-12-20T12:11:30;0.70;;;0.70;;
22107;SDS011;11220;48.812;9.128;2022-12-20T12:13:59;0.70;;;0.70;;
22107;SDS011;11220;48.812;9.128;2022-12-20T12:16:37;0.70;;;0.70;;
22107;SDS011;11220;48.812;9.128;2022-12-20T12:19:10;1.20;;;0.70;;
22107;SDS011;11220;48.812;9.128;2022-12-20T12:26:59;0.60;;;0.60;;
22107;SDS011;11220;48.812;9.128;2022-12-20T12:29:27;0.90;;;0.70;;
22107;SDS011;11220;48.812;9.128;2022-12-20T12:37:50;0.75;;;0.70;;
22107;SDS011;11220;48.812;9.128;2022-12-20T12:40:59;0.73;;;0.68;;
22107;SDS011;11220;48.812;9.128;2022-12-20T12:46:21;0.73;;;0.70;;
22107;SDS011;11220;48.812;9.128;2022-12-20T12:51:33;0.70;;;0.70;;
22107;SDS011;11220;48.812;9.128;2022-12-20T12:54:46;0.55;;;0.55;;
22107;SDS011;11220;48.812;9.128;2022-12-20T12:56:52;0.80;;;0.73;;
22107;SDS011;11220;48.812;9.128;2022-12-20T13:07:27;1.45;;;0.60;;
22107;SDS011;11220;48.812;9.128;2022-12-20T13:10:01;0.50;;;0.50;;
22107;SDS011;11220;48.812;9.128;2022-12-20T13:17:49;0.50;;;0.50;;
22107;SDS011;11220;48.812;9.128;2022-12-20T13:20:38;0.88;;;0.80;;
22107;SDS011;11220;48.812;9.128;2022-12-20T13:25:32;1.30;;;0.80;;
22107;SDS011;11220;48.812;9.128;2022-12-20T13:30:43;0.90;;;0.60;;
22107;SDS011;11220;48.812;9.128;2022-12-20T13:36:12;0.90;;;0.60;;
22107;SDS011;11220;48.812;9.128;2022-12-20T13:38:59;1.15;;;0.70;;
22107;SDS011;11220;48.812;9.128;2022-12-20T13:41:34;1.02;;;0.77;;
22107;SDS011;11220;48.812;9.128;2022-12-20T13:46:53;1.05;;;0.70;;
22107;SDS011;11220;48.812;9.128;2022-12-20T13:49:39;0.50;;;0.50;;
22107;SDS011;11220;48.812;9.128;2022-12-20T13:54:42;1.48;;;0.80;;
22107;SDS011;11220;48.812;9.128;2022-12-20T13:57:25;0.50;;;0.40;;
22107;SDS011;11220;48.812;9.128;2022-12-20T13:59:56;0.50;;;0.50;;
22107;SDS011;11220;48.812;9.128;2022-12-20T14:02:29;0.70;;;0.63;;
22107;SDS011;11220;48.812;9.128;2022-12-20T14:05:12;1.15;;;0.82;;
22107;SDS011;11220;48.812;9.128;2022-12-20T14:08:13;0.80;;;0.68;;
22107;SDS011;11220;48.812;9.128;2022-12-20T14:10:44;1.45;;;0.63;;
22107;SDS011;11220;48.812;9.128;2022-12-20T14:13:17;0.95;;;0.65;;
22107;SDS011;11220;48.812;9.128;2022-12-20T14:15:45;0.77;;;0.60;;
22107;SDS011;11220;48.812;9.128;2022-12-20T14:18:18;0.90;;;0.60;;
22107;SDS011;11220;48.812;9.128;2022-12-20T14:20:46;0.75;;;0.70;;
22107;SDS011;11220;48.812;9.128;2022-12-20T14:23:18;1.00;;;0.70;;
22107;SDS011;11220;48.812;9.128;2022-12-20T14:28:17;1.05;;;0.80;;
22107;SDS011;11220;48.812;9.128;2022-12-20T14:30:46;0.82;;;0.70;;
22107;SDS011;11220;48.812;9.128;2022-12-20T14:33:16;1.40;;;0.77;;
22107;SDS011;11220;48.812;9.128;2022-12-20T14:35:50;1.02;;;0.70;;
22107;SDS011;11220;48.812;9.128;2022-12-20T14:38:33;0.70;;;0.70;;
22107;SDS011;11220;48.812;9.128;2022-12-20T14:40:59;0.73;;;0.73;;
22107;SDS011;11220;48.812;9.128;2022-12-20T14:43:31;0.88;;;0.70;;
22107;SDS011;11220;48.812;9.128;2022-12-20T14:46:12;1.17;;;0.80;;
22107;SDS011;11220;48.812;9.128;2022-12-20T14:48:48;1.15;;;0.70;;
22107;SDS011;11220;48.812;9.128;2022-12-20T14:51:35;0.90;;;0.80;;
22107;SDS011;11220;48.812;9.128;2022-12-20T14:54:00;0.90;;;0.77;;
22107;SDS011;11220;48.812;9.128;2022-12-20T14:56:26;1.17;;;0.80;;
22107;SDS011;11220;48.812;9.128;2022-12-20T15:01:38;0.77;;;0.75;;
22107;SDS011;11220;48.812;9.128;2022-12-20T15:04:17;1.02;;;0.70;;
22107;SDS011;11220;48.812;9.128;2022-12-20T15:06:58;0.80;;;0.80;;
22107;SDS011;11220;48.812;9.128;2022-12-20T15:09:25;0.73;;;0.70;;
22107;SDS011;11220;48.812;9.128;2022-12-20T15:11:51;0.93;;;0.68;;
22107;SDS011;11220;48.812;9.128;2022-12-20T15:16:53;1.05;;;0.80;;
22107;SDS011;11220;48.812;9.128;2022-12-20T15:19:18;0.70;;;0.70;;
22107;SDS011;11220;48.812;9.128;2022-12-20T15:21:44;1.20;;;0.90;;
22107;SDS011;11220;48.812;9.128;2022-12-20T15:24:11;1.23;;;0.70;;
22107;SDS011;11220;48.812;9.128;2022-12-20T15:26:38;0.95;;;0.60;;
22107;SDS011;11220;48.812;9.128;2022-12-20T15:29:05;0.85;;;0.70;;
22107;SDS011;11220;48.812;9.128;2022-12-20T15:31:34;0.82;;;0.75;;
22107;SDS011;11220;48.812;9.128;2022-12-20T15:34:05;0.82;;;0.73;;
22107;SDS011;11220;48.812;9.128;2022-12-20T15:36:45;2.00;;;0.80;;
22107;SDS011;11220;48.812;9.128;2022-12-20T15:39:11;1.67;;;0.90;;
22107;SDS011;11220;48.812;9.128;2022-12-20T15:41:37;1.08;;;0.77;;
22107;SDS011;11220;48.812;9.128;2022-12-20T15:44:06;1.13;;;0.73;;
22107;SDS011;11220;48.812;9.128;2022-12-20T15:46:37;1.33;;;1.00;;
22107;SDS011;11220;48.812;9.128;2022-12-20T15:49:03;1.35;;;0.80;;
22107;SDS011;11220;48.812;9.128;2022-12-20T15:51:29;1.13;;;0.80;;
22107;SDS011;11220;48.812;9.128;2022-12-20T15:53:57;1.42;;;0.68;;
22107;SDS011;11220;48.812;9.128;2022-12-20T15:56:24;0.75;;;0.70;;
22107;SDS011;11220;48.812;9.128;2022-12-20T15:58:50;1.05;;;0.90;;
22107;SDS011;11220;48.812;9.128;2022-12-20T16:01:20;1.15;;;0.90;;
22107;SDS011;11220;48.812;9.128;2022-12-20T16:03:52;1.35;;;0.95;;
22107;SDS011;11220;48.812;9.128;2022-12-20T16:06:17;1.02;;;0.70;;
22107;SDS011;11220;48.812;9.128;2022-12-20T16:08:43;1.25;;;0.80;;
22107;SDS011;11220;48.812;9.128;2022-12-20T16:11:16;1.40;;;1.00;;
22107;SDS011;11220;48.812;9.128;2022-12-20T16:13:45;1.17;;;0.77;;
22107;SDS011;11220;48.812;9.128;2022-12-20T16:16:17;0.98;;;0.73;;
22107;SDS011;11220;48.812;9.128;2022-12-20T16:18:51;0.90;;;0.80;;
22107;SDS011;11220;48.812;9.128;2022-12-20T16:21:21;0.95;;;0.73;;
22107;SDS011;11220;48.812;9.128;2022-12-20T16:23:51;1.08;;;0.80;;
22107;SDS011;11220;48.812;9.128;2022-12-20T16:26:21;0.90;;;0.75;;
22107;SDS011;11220;48.812;9.128;2022-12-20T16:28:48;0.90;;;0.70;;
22107;SDS011;11220;48.812;9.128;2022-12-20T16:31:20;1.48;;;0.77;;
22107;SDS011;11220;48.812;9.128;2022-12-20T16:33:52;1.08;;;0.80;;
22107;SDS011;11220;48.812;9.128;2022-12-20T16:36:19;1.20;;;0.80;;
22107;SDS011;11220;48.812;9.128;2022-12-20T16:38:45;1.10;;;0.90;;
22107;SDS011;11220;48.812;9.128;2022-12-20T16:41:12;0.70;;;0.60;;
22107;SDS011;11220;48.812;9.128;2022-12-20T16:43:39;0.90;;;0.70;;
22107;SDS011;11220;48.812;9.128;2022-12-20T16:46:08;1.00;;;0.65;;
22107;SDS011;11220;48.812;9.128;2022-12-20T16:48:38;0.75;;;0.75;;
22107;SDS011;11220;48.812;9.128;2022-12-20T16:54:14;0.80;;;0.80;;
22107;SDS011;11220;48.812;9.128;2022-12-20T16:56:46;1.35;;;0.70;;
22107;SDS011;11220;48.812;9.128;2022-12-20T16:59:15;1.10;;;1.00;;
22107;SDS011;11220;48.812;9.128;2022-12-20T17:01:41;0.80;;;0.77;;
22107;SDS011;11220;48.812;9.128;2022-12-20T17:04:10;1.15;;;0.60;;